Time;durP1;ratioP1;P1;durP2;ratioP2;P2;SDS_P1;SDS_P2;PMS_P1;PMS_P2;Temp;Humidity;BMP_temperature;BMP_pressure;BME280_temperature;BME280_humidity;BME280_pressure;Samples;Min_cycle;Max_cycle;Signal;HPM_P1;HPM_P2
2022/06/03 00:00:06;;;;;;;2.10;1.35;;;10.50;99.90;;;;;;5055737;28;20052;-72
2022/06/03 00:03:02;;;;;;;3.25;1.83;;;10.50;99.90;;;;;;5072318;28;20047;-72
2022/06/03 00:05:52;;;;;;;1.30;1.00;;;10.50;99.90;;;;;;5055909;28;20048;-72
2022/06/03 00:08:53;;;;;;;3.90;1.23;;;10.50;99.90;;;;;;5072241;28;20032;-72
2022/06/03 00:11:24;;;;;;;2.58;1.42;;;10.50;99.90;;;;;;5072382;28;20044;-72
2022/06/03 00:14:10;;;;;;;2.13;1.15;;;10.40;99.90;;;;;;5072345;28;20488;-73
2022/06/03 00:16:46;;;;;;;3.40;1.40;;;10.40;99.90;;;;;;5072293;28;20055;-72
2022/06/03 00:19:24;;;;;;;2.90;1.58;;;10.40;99.90;;;;;;5071910;28;20119;-72
2022/06/03 00:22:12;;;;;;;4.28;1.95;;;10.40;99.90;;;;;;5071968;28;20137;-72
2022/06/03 00:25:06;;;;;;;2.58;1.60;;;10.40;99.90;;;;;;5072301;28;20480;-73
2022/06/03 00:27:43;;;;;;;2.72;1.75;;;10.40;99.90;;;;;;5071936;28;20045;-72
2022/06/03 00:30:15;;;;;;;2.55;1.50;;;10.30;99.90;;;;;;5055248;28;20044;-72
2022/06/03 00:32:59;;;;;;;1.85;1.30;;;10.30;99.90;;;;;;5072078;28;20063;-73
2022/06/03 00:35:42;;;;;;;2.90;1.67;;;10.30;99.90;;;;;;5055159;28;20101;-72
2022/06/03 00:38:26;;;;;;;1.95;1.40;;;10.20;99.90;;;;;;5071758;28;20047;-72
2022/06/03 00:41:29;;;;;;;1.75;1.50;;;10.20;99.90;;;;;;5071690;28;20392;-72
2022/06/03 00:44:19;;;;;;;2.60;1.20;;;10.20;99.90;;;;;;5071766;28;20466;-72
2022/06/03 00:46:51;;;;;;;3.08;1.55;;;10.10;99.90;;;;;;5071929;28;20388;-72
2022/06/03 00:49:46;;;;;;;2.30;1.55;;;10.00;99.90;;;;;;5054892;28;20045;-72
2022/06/03 00:52:30;;;;;;;1.42;1.15;;;10.00;99.90;;;;;;5071856;28;20048;-72
2022/06/03 00:55:25;;;;;;;2.25;1.52;;;10.00;99.90;;;;;;5071652;28;20048;-73
2022/06/03 00:58:09;;;;;;;3.88;1.25;;;10.00;99.90;;;;;;5054866;28;20048;-72
2022/06/03 01:00:58;;;;;;;2.83;1.52;;;10.00;99.90;;;;;;5054747;28;20076;-73
2022/06/03 01:03:23;;;;;;;3.03;1.70;;;10.10;99.90;;;;;;5071547;28;20194;-73
2022/06/03 01:06:01;;;;;;;2.75;1.65;;;10.00;99.90;;;;;;5054911;28;20445;-73
2022/06/03 01:09:09;;;;;;;2.60;1.48;;;9.90;99.90;;;;;;5071405;28;20044;-72
2022/06/03 01:11:43;;;;;;;1.92;1.40;;;9.80;99.90;;;;;;5056073;28;20514;-72
2022/06/03 01:14:26;;;;;;;2.92;1.50;;;9.90;99.90;;;;;;5054923;28;20055;-72
2022/06/03 01:17:09;;;;;;;2.58;1.52;;;9.80;99.90;;;;;;5109326;28;20047;-72
2022/06/03 01:20:13;;;;;;;4.15;1.63;;;9.80;99.90;;;;;;5075682;28;20076;-72
2022/06/03 01:23:09;;;;;;;3.22;1.90;;;9.80;99.90;;;;;;5075318;28;20052;-72
2022/06/03 01:26:02;;;;;;;2.90;1.67;;;9.80;99.90;;;;;;5075634;28;20052;-72
2022/06/03 01:28:43;;;;;;;2.03;1.55;;;9.70;99.90;;;;;;5075526;28;20048;-72
2022/06/03 01:31:40;;;;;;;3.42;1.70;;;9.70;99.90;;;;;;5075247;28;20504;-73
2022/06/03 01:34:26;;;;;;;2.15;1.35;;;9.70;99.90;;;;;;5058727;28;20109;-72
2022/06/03 01:37:18;;;;;;;2.70;1.70;;;9.70;99.90;;;;;;5075065;28;20190;-72
2022/06/03 01:40:05;;;;;;;5.75;2.10;;;9.60;99.90;;;;;;5075234;28;20048;-72
2022/06/03 01:43:15;;;;;;;3.50;1.88;;;9.60;99.90;;;;;;5074938;28;20076;-72
2022/06/03 01:46:04;;;;;;;2.67;1.90;;;9.60;99.90;;;;;;5064666;28;20080;-72
2022/06/03 01:48:49;;;;;;;2.70;1.70;;;9.60;99.90;;;;;;5074835;28;20052;-72
2022/06/03 01:51:30;;;;;;;2.20;1.55;;;9.50;99.90;;;;;;5108702;28;20036;-72
2022/06/03 01:54:15;;;;;;;3.25;1.92;;;9.40;99.90;;;;;;5074784;28;20076;-72
2022/06/03 01:57:14;;;;;;;2.58;1.83;;;9.50;99.90;;;;;;5074682;28;20040;-72
2022/06/03 02:00:31;;;;;;;2.33;1.38;;;9.50;99.90;;;;;;5074583;28;20479;-72
2022/06/03 02:03:20;;;;;;;2.08;1.42;;;9.50;99.90;;;;;;5037209;28;20125;-72
2022/06/03 02:06:13;;;;;;;3.13;1.80;;;9.50;99.90;;;;;;5020452;28;20511;-72
2022/06/03 02:08:41;;;;;;;3.65;1.88;;;9.40;99.90;;;;;;5070358;28;20053;-72
2022/06/03 02:11:27;;;;;;;3.28;1.50;;;9.40;99.90;;;;;;5074411;28;20052;-72
2022/06/03 02:14:24;;;;;;;3.70;1.63;;;9.50;99.90;;;;;;5067204;28;20052;-72
2022/06/03 02:17:17;;;;;;;3.55;2.30;;;9.40;99.90;;;;;;5054089;28;20056;-72
2022/06/03 02:19:52;;;;;;;3.08;1.98;;;9.40;99.90;;;;;;5074213;28;20079;-72
2022/06/03 02:23:17;;;;;;;2.88;1.75;;;9.40;99.90;;;;;;5074138;28;20121;-72
2022/06/03 02:26:00;;;;;;;3.63;1.52;;;9.40;99.90;;;;;;5035366;28;20052;-72
2022/06/03 02:30:24;;;;;;;3.90;2.20;;;9.30;99.90;;;;;;5074158;28;20486;-72
2022/06/03 02:31:50;;;;;;;2.63;1.63;;;9.30;99.90;;;;;;5074282;28;20127;-73
2022/06/03 02:34:25;;;;;;;3.95;2.25;;;9.30;99.90;;;;;;5073989;28;20376;-72
2022/06/03 02:37:17;;;;;;;2.08;1.35;;;9.30;99.90;;;;;;5074356;28;20072;-72
2022/06/03 02:40:03;;;;;;;3.47;1.73;;;9.30;99.90;;;;;;5074122;28;20037;-72
2022/06/03 02:43:06;;;;;;;1.80;1.52;;;9.60;99.90;;;;;;5057561;28;20032;-72
2022/06/03 02:45:45;;;;;;;3.72;2.42;;;9.30;99.90;;;;;;5073829;28;20105;-72
2022/06/03 02:48:31;;;;;;;1.95;1.58;;;9.30;99.90;;;;;;5073737;28;20043;-72
2022/06/03 02:51:14;;;;;;;6.18;2.45;;;9.20;99.90;;;;;;5074086;28;20440;-72
2022/06/03 02:54:02;;;;;;;2.45;1.85;;;9.20;99.90;;;;;;5073709;28;20119;-72
2022/06/03 02:56:52;;;;;;;2.88;1.65;;;9.20;99.90;;;;;;5056913;28;20048;-72
2022/06/03 02:59:40;;;;;;;4.07;2.20;;;9.10;99.90;;;;;;5073526;28;20072;-72
2022/06/03 03:02:08;;;;;;;2.80;1.75;;;9.10;99.90;;;;;;5073526;28;20142;-72
2022/06/03 03:04:56;;;;;;;3.15;1.80;;;9.10;99.90;;;;;;5073445;28;20453;-72
2022/06/03 03:08:00;;;;;;;4.10;1.77;;;9.10;99.90;;;;;;5073395;28;20177;-72
2022/06/03 03:10:32;;;;;;;6.85;2.35;;;9.00;99.90;;;;;;5052797;28;20045;-72
2022/06/03 03:13:09;;;;;;;4.70;2.10;;;9.10;99.90;;;;;;5073327;28;20068;-72
2022/06/03 03:15:41;;;;;;;4.72;2.40;;;9.10;99.90;;;;;;5073265;28;20040;-72
2022/06/03 03:18:44;;;;;;;3.88;2.25;;;9.10;99.90;;;;;;5056526;28;20181;-73
2022/06/03 03:21:48;;;;;;;3.92;2.00;;;9.10;99.90;;;;;;5072997;28;20561;-72
2022/06/03 03:24:43;;;;;;;3.70;1.80;;;9.00;99.90;;;;;;5073060;28;20458;-72
2022/06/03 03:27:15;;;;;;;2.97;1.92;;;9.00;99.90;;;;;;5073385;28;20072;-72
2022/06/03 03:29:57;;;;;;;4.50;1.85;;;9.00;99.90;;;;;;5072976;28;20048;-72
2022/06/03 03:33:00;;;;;;;2.70;1.80;;;9.00;99.90;;;;;;5072847;28;20064;-72
2022/06/03 03:35:43;;;;;;;8.65;2.72;;;9.00;99.90;;;;;;5056405;28;20040;-72
2022/06/03 03:38:24;;;;;;;2.85;1.70;;;9.00;99.90;;;;;;5072222;28;20045;-72
2022/06/03 03:40:59;;;;;;;3.17;1.83;;;9.00;99.90;;;;;;5072740;28;20041;-72
2022/06/03 03:43:30;;;;;;;4.47;2.35;;;9.00;99.90;;;;;;5055968;28;20041;-72
2022/06/03 03:46:19;;;;;;;6.80;2.45;;;9.00;99.90;;;;;;5072559;28;20385;-72
2022/06/03 03:49:05;;;;;;;4.90;2.22;;;9.00;99.90;;;;;;5072376;28;20086;-72
2022/06/03 03:51:57;;;;;;;5.25;2.75;;;9.10;99.90;;;;;;5072443;28;20153;-72
2022/06/03 03:54:40;;;;;;;4.10;2.13;;;9.20;99.90;;;;;;5106375;28;20041;-72
2022/06/03 03:57:31;;;;;;;4.97;1.90;;;9.20;99.90;;;;;;5072726;28;20040;-72
2022/06/03 04:00:03;;;;;;;3.30;2.63;;;9.20;99.90;;;;;;5072593;28;20060;-72
2022/06/03 04:03:18;;;;;;;3.83;2.28;;;9.30;99.90;;;;;;5072250;28;20051;-72
2022/06/03 04:06:08;;;;;;;8.52;2.17;;;9.30;99.90;;;;;;5072215;28;20040;-72
2022/06/03 04:09:11;;;;;;;3.25;2.05;;;9.40;99.90;;;;;;5072425;28;20946;-73
2022/06/03 04:12:17;;;;;;;4.22;2.33;;;9.50;99.90;;;;;;5055806;28;20411;-72
2022/06/03 04:15:33;;;;;;;4.20;2.50;;;9.60;99.90;;;;;;5072089;28;20041;-72
2022/06/03 04:18:23;;;;;;;4.45;2.60;;;9.60;99.90;;;;;;5049893;28;20445;-72
2022/06/03 04:21:07;;;;;;;4.15;1.83;;;9.70;99.90;;;;;;5055178;28;20048;-72
2022/06/03 04:24:29;;;;;;;2.53;1.65;;;9.70;99.90;;;;;;5072221;28;20071;-72
2022/06/03 04:27:06;;;;;;;3.17;1.75;;;9.80;99.90;;;;;;5034321;28;20400;-72
2022/06/03 04:29:51;;;;;;;3.90;2.15;;;9.90;99.90;;;;;;5017792;28;20126;-72
2022/06/03 04:33:08;;;;;;;2.95;1.85;;;9.90;99.90;;;;;;5041844;28;20063;-73
2022/06/03 04:36:00;;;;;;;6.75;2.00;;;9.90;99.90;;;;;;5033188;28;20060;-72
2022/06/03 04:38:51;;;;;;;3.28;1.88;;;9.90;99.90;;;;;;5055144;28;20036;-73
2022/06/03 04:41:57;;;;;;;4.00;2.53;;;10.00;99.90;;;;;;5071780;28;20040;-72
2022/06/03 04:44:40;;;;;;;4.50;2.67;;;10.00;99.90;;;;;;5071683;28;20376;-73
2022/06/03 04:47:15;;;;;;;3.67;1.92;;;10.10;99.90;;;;;;5055280;28;20040;-73
2022/06/03 04:49:41;;;;;;;3.08;2.20;;;10.10;99.90;;;;;;5070727;28;20037;-73
2022/06/03 04:52:44;;;;;;;3.40;2.05;;;10.20;99.90;;;;;;5071726;28;20040;-74
2022/06/03 04:55:49;;;;;;;5.00;2.58;;;10.20;99.90;;;;;;5071797;28;20444;-73
2022/06/03 04:58:51;;;;;;;4.38;2.45;;;10.40;99.90;;;;;;5071467;28;20106;-73
2022/06/03 05:02:03;;;;;;;5.45;2.35;;;10.50;99.90;;;;;;5071524;28;20391;-74
2022/06/03 05:04:32;;;;;;;;;;;10.60;99.90;;;;;;5071984;28;20403;-73
2022/06/03 05:07:16;;;;;;;3.97;2.38;;;10.60;99.90;;;;;;5071576;28;19964;-73
2022/06/03 05:09:57;;;;;;;4.63;2.17;;;11.30;99.90;;;;;;5071458;28;20045;-73
2022/06/03 05:12:58;;;;;;;5.15;2.60;;;10.80;99.90;;;;;;5071723;28;20040;-73
2022/06/03 05:16:06;;;;;;;8.02;2.58;;;11.00;99.90;;;;;;5071409;28;20036;-73
2022/06/03 05:18:50;;;;;;;4.07;2.30;;;11.10;99.90;;;;;;5056027;28;20144;-73
2022/06/03 05:21:43;;;;;;;5.50;2.30;;;11.20;99.90;;;;;;5071246;28;20078;-73
2022/06/03 05:24:22;;;;;;;3.35;2.05;;;11.30;99.90;;;;;;5071376;28;20053;-73
2022/06/03 05:27:35;;;;;;;5.53;2.65;;;11.50;99.90;;;;;;5071627;28;20033;-73
2022/06/03 05:30:28;;;;;;;3.55;1.98;;;11.60;99.90;;;;;;5071303;28;20051;-74
2022/06/03 05:33:06;;;;;;;3.72;2.22;;;11.80;99.90;;;;;;5071376;28;20128;-74
2022/06/03 05:35:56;;;;;;;4.80;2.53;;;11.90;99.90;;;;;;5071361;28;20045;-73
2022/06/03 05:38:43;;;;;;;4.72;2.60;;;12.10;99.90;;;;;;5071368;28;20045;-73
2022/06/03 05:45:05;;;;;;;6.07;2.38;;;12.50;99.90;;;;;;5071524;28;20436;-73
2022/06/03 05:47:38;;;;;;;4.07;2.28;;;12.60;99.90;;;;;;5071660;28;20048;-73
2022/06/03 05:50:38;;;;;;;3.75;2.15;;;12.60;99.90;;;;;;5072212;28;20101;-73
2022/06/03 05:53:34;;;;;;;4.10;2.50;;;12.80;99.90;;;;;;5054684;28;20048;-72
2022/06/03 05:56:02;;;;;;;2.85;1.95;;;13.00;99.90;;;;;;5072000;28;20442;-74
2022/06/03 05:58:58;;;;;;;4.18;2.80;;;13.00;99.90;;;;;;5055374;28;20047;-73
2022/06/03 06:01:42;;;;;;;5.25;2.75;;;13.20;99.90;;;;;;5072600;28;20446;-74
2022/06/03 06:04:30;;;;;;;3.05;2.13;;;13.40;99.90;;;;;;5057937;28;20036;-74
2022/06/03 06:07:14;;;;;;;4.53;2.30;;;13.40;99.90;;;;;;5058111;28;20124;-73
2022/06/03 06:10:18;;;;;;;8.20;3.08;;;13.70;99.90;;;;;;5058991;28;20373;-73
2022/06/03 06:13:08;;;;;;;5.60;2.53;;;13.60;99.90;;;;;;5039898;28;20048;-73
2022/06/03 06:15:53;;;;;;;5.20;3.00;;;13.70;99.90;;;;;;5075286;28;20434;-73
2022/06/03 06:18:27;;;;;;;5.18;2.78;;;13.80;99.90;;;;;;5074294;28;20076;-73
2022/06/03 06:20:53;;;;;;;5.40;2.50;;;;;;;;;;5074152;28;20052;-73
2022/06/03 06:23:25;;;;;;;4.80;2.67;;;;;;;;;;5057730;28;20051;-73
2022/06/03 06:26:28;;;;;;;3.60;2.28;;;14.30;99.90;;;;;;5074507;28;20561;-74
2022/06/03 06:29:15;;;;;;;5.20;2.60;;;14.40;99.90;;;;;;5074176;28;20063;-75
2022/06/03 06:31:53;;;;;;;3.40;2.20;;;;;;;;;;5074183;28;20431;-75
2022/06/03 06:34:28;;;;;;;4.03;2.28;;;;;;;;;;5074464;28;20503;-74
2022/06/03 06:37:01;;;;;;;6.22;2.17;;;;;;;;;;5073994;28;20063;-74
2022/06/03 06:39:36;;;;;;;3.55;2.08;;;;;;;;;;5073934;28;20373;-74
2022/06/03 06:42:08;;;;;;;3.72;2.08;;;;;;;;;;5073872;28;20067;-75
2022/06/03 06:44:49;;;;;;;2.78;1.85;;;15.20;99.90;;;;;;5057402;28;20043;-75
2022/06/03 06:47:25;;;;;;;3.03;1.90;;;15.20;99.90;;;;;;5074211;28;20078;-75
2022/06/03 06:50:25;;;;;;;3.75;2.03;;;15.30;99.90;;;;;;5074010;28;20048;-74
2022/06/03 06:53:12;;;;;;;2.03;1.17;;;15.50;99.90;;;;;;5074138;28;20044;-74
2022/06/03 06:55:48;;;;;;;2.40;1.50;;;15.60;99.90;;;;;;5057393;28;20044;-76
2022/06/03 06:58:25;;;;;;;1.58;1.27;;;15.50;99.90;;;;;;5073803;28;20093;-74
2022/06/03 07:00:52;;;;;;;2.55;1.65;;;15.70;99.90;;;;;;5073693;28;20373;-74
2022/06/03 07:03:28;;;;;;;3.00;1.30;;;15.70;99.90;;;;;;5073678;28;20475;-73
2022/06/03 07:06:05;;;;;;;2.58;1.38;;;15.70;99.90;;;;;;5057193;28;20546;-75
2022/06/03 07:08:47;;;;;;;2.05;1.30;;;15.70;99.90;;;;;;5056826;28;20043;-74
2022/06/03 07:11:25;;;;;;;1.23;0.95;;;15.80;99.90;;;;;;5073504;28;20040;-75
2022/06/03 07:14:06;;;;;;;3.83;1.10;;;15.90;99.90;;;;;;5072534;28;20072;-75
2022/06/03 07:20:13;;;;;;;2.30;1.48;;;16.30;99.90;;;;;;5073674;28;20037;-74
2022/06/03 07:22:48;;;;;;;2.03;1.42;;;16.50;99.90;;;;;;5056405;28;20400;-73
2022/06/03 07:25:20;;;;;;;3.30;1.67;;;16.60;99.90;;;;;;5073358;28;20047;-74
2022/06/03 07:28:02;;;;;;;3.60;1.77;;;16.70;99.90;;;;;;5057008;28;20115;-73
2022/06/03 07:30:42;;;;;;;3.20;1.60;;;16.90;99.90;;;;;;5073498;28;20044;-73
2022/06/03 07:33:08;;;;;;;3.22;1.60;;;17.10;99.90;;;;;;5056626;28;20508;-74
2022/06/03 07:35:48;;;;;;;3.00;1.75;;;17.10;99.90;;;;;;5073044;28;20072;-73
2022/06/03 07:38:31;;;;;;;4.75;2.00;;;17.20;99.90;;;;;;5073108;28;20123;-74
2022/06/03 07:41:19;;;;;;;2.05;1.38;;;17.30;99.90;;;;;;5072960;28;20100;-74
2022/06/03 07:43:53;;;;;;;5.13;2.08;;;17.40;99.90;;;;;;5072865;28;20042;-74
2022/06/03 07:46:25;;;;;;;3.25;1.58;;;17.40;99.90;;;;;;5056356;28;20037;-74
2022/06/03 07:48:51;;;;;;;3.42;1.80;;;17.50;99.90;;;;;;5072471;28;20071;-74
2022/06/03 07:51:31;;;;;;;3.67;1.52;;;17.70;99.90;;;;;;5056139;28;20040;-74
2022/06/03 07:54:14;;;;;;;2.22;1.50;;;17.80;99.90;;;;;;5072986;28;20358;-75
2022/06/03 07:56:40;;;;;;;3.88;1.25;;;17.80;99.90;;;;;;5072626;28;20040;-74
2022/06/03 07:59:17;;;;;;;2.45;1.25;;;18.00;99.90;;;;;;5039575;28;20037;-75
2022/06/03 08:01:56;;;;;;;2.42;1.45;;;18.20;99.90;;;;;;5073092;28;20040;-74
2022/06/03 08:04:30;;;;;;;3.08;1.90;;;18.30;99.90;;;;;;5074303;28;20044;-74
2022/06/03 08:12:30;;;;;;;4.82;2.05;;;18.50;99.90;;;;;;5072482;28;20097;-75
2022/06/03 08:14:56;;;;;;;2.00;1.30;;;18.60;99.90;;;;;;5072313;28;20090;-75
2022/06/03 08:17:24;;;;;;;3.28;1.65;;;18.70;99.90;;;;;;5072382;28;20135;-75
2022/06/03 08:19:50;;;;;;;2.05;1.45;;;18.70;99.90;;;;;;5072555;28;20045;-75
2022/06/03 08:22:20;;;;;;;1.70;1.33;;;18.70;99.90;;;;;;5055414;28;20063;-75
2022/06/03 08:24:55;;;;;;;5.68;1.98;;;18.70;99.90;;;;;;5071730;28;20048;-76
2022/06/03 08:27:33;;;;;;;6.80;1.85;;;18.80;99.90;;;;;;5055554;28;20036;-75
2022/06/03 08:30:21;;;;;;;2.10;1.40;;;18.80;99.90;;;;;;5071915;28;20049;-75
2022/06/03 08:32:53;;;;;;;3.28;2.00;;;18.90;99.90;;;;;;5050111;28;20040;-75
2022/06/03 08:35:23;;;;;;;2.10;1.50;;;18.90;99.90;;;;;;5055303;28;20089;-74
2022/06/03 08:38:02;;;;;;;3.20;1.83;;;18.90;99.90;;;;;;5055471;28;20083;-75
2022/06/03 08:40:44;;;;;;;2.35;1.55;;;19.00;99.90;;;;;;5071821;28;20127;-74
2022/06/03 08:43:13;;;;;;;1.30;1.10;;;18.80;99.90;;;;;;5071981;28;20062;-75
2022/06/03 08:45:47;;;;;;;2.20;1.40;;;19.00;99.90;;;;;;5072047;28;20047;-74
2022/06/03 08:48:16;;;;;;;1.65;1.40;;;18.90;99.90;;;;;;5071919;28;20040;-75
2022/06/03 08:50:48;;;;;;;2.47;1.40;;;19.10;99.90;;;;;;5071661;28;20048;-75
2022/06/03 08:53:59;;;;;;;2.78;1.40;;;19.20;99.90;;;;;;5071943;28;20040;-75
2022/06/03 08:56:38;;;;;;;2.22;1.40;;;19.10;99.90;;;;;;5034041;28;20045;-75
2022/06/03 08:59:14;;;;;;;1.35;1.00;;;19.10;99.90;;;;;;5067113;28;20052;-75
2022/06/03 09:02:01;;;;;;;1.83;1.23;;;19.30;99.90;;;;;;5071807;28;20098;-75
2022/06/03 09:04:52;;;;;;;2.60;1.55;;;19.30;99.90;;;;;;5071862;28;20086;-75
2022/06/03 09:07:41;;;;;;;3.00;1.40;;;19.40;99.90;;;;;;5071837;28;20087;-73
2022/06/03 09:10:07;;;;;;;2.70;1.48;;;19.40;99.90;;;;;;5071934;28;20137;-74
2022/06/03 09:12:32;;;;;;;2.33;1.52;;;19.40;99.90;;;;;;5072029;28;20087;-73
2022/06/03 09:15:08;;;;;;;3.28;1.42;;;19.50;99.90;;;;;;5071944;28;20040;-74
2022/06/03 09:17:46;;;;;;;2.42;1.60;;;19.60;99.90;;;;;;5072065;28;20169;-74
2022/06/03 09:20:21;;;;;;;3.13;1.50;;;19.60;99.90;;;;;;5071557;28;20047;-74
2022/06/03 09:22:47;;;;;;;2.15;1.50;;;19.60;99.90;;;;;;5054842;28;20049;-75
2022/06/03 09:25:16;;;;;;;2.58;1.88;;;19.60;99.90;;;;;;5055049;28;20040;-74
2022/06/03 09:27:45;;;;;;;3.22;1.67;;;19.60;99.90;;;;;;5071732;28;20052;-74
2022/06/03 09:30:14;;;;;;;1.73;1.33;;;19.70;99.90;;;;;;5072171;28;20036;-74
2022/06/03 09:32:49;;;;;;;2.70;1.40;;;19.80;99.90;;;;;;5071554;28;20041;-74
2022/06/03 09:35:21;;;;;;;2.42;1.50;;;19.90;99.90;;;;;;5071612;28;20050;-74
2022/06/03 09:37:57;;;;;;;4.13;2.03;;;19.90;99.90;;;;;;5075139;28;20048;-74
2022/06/03 09:40:33;;;;;;;1.92;1.42;;;20.00;99.90;;;;;;5075743;28;20369;-75
2022/06/03 09:43:21;;;;;;;2.55;1.45;;;20.10;99.90;;;;;;5075444;28;20036;-74
2022/06/03 09:45:51;;;;;;;2.53;1.58;;;19.80;99.90;;;;;;5075455;28;20040;-74
2022/06/03 09:48:21;;;;;;;2.20;1.20;;;19.80;99.90;;;;;;5058565;28;20096;-75
2022/06/03 09:50:49;;;;;;;1.92;1.27;;;20.00;99.90;;;;;;5059003;28;20036;-74
2022/06/03 09:53:22;;;;;;;1.73;1.00;;;20.10;99.90;;;;;;5058703;28;20036;-75
2022/06/03 09:55:54;;;;;;;1.75;1.27;;;20.10;99.90;;;;;;5075008;28;20044;-74
2022/06/03 09:58:24;;;;;;;2.47;1.70;;;20.10;99.90;;;;;;5074899;28;20040;-77
2022/06/03 10:00:53;;;;;;;3.00;1.55;;;20.10;99.90;;;;;;5074664;28;20106;-77
2022/06/03 10:03:20;;;;;;;3.22;1.42;;;20.20;99.90;;;;;;5075151;28;20041;-76
2022/06/03 10:05:51;;;;;;;3.72;1.30;;;20.30;99.90;;;;;;5075298;28;20037;-77
2022/06/03 10:08:21;;;;;;;1.70;1.30;;;20.40;99.90;;;;;;5074873;28;20033;-73
2022/06/03 10:13:37;;;;;;;2.03;1.27;;;20.30;99.90;;;;;;5074668;28;20344;-75
2022/06/03 10:16:04;;;;;;;1.35;0.90;;;20.40;99.90;;;;;;5074686;28;20086;-75
2022/06/03 10:18:36;;;;;;;1.45;1.10;;;20.30;99.90;;;;;;5058111;28;20044;-75
2022/06/03 10:21:04;;;;;;;1.65;1.10;;;20.40;99.90;;;;;;5074271;28;20562;-73
2022/06/03 10:23:36;;;;;;;1.83;1.33;;;20.40;99.90;;;;;;5074426;28;20053;-74
2022/06/03 10:26:05;;;;;;;1.83;1.23;;;20.40;99.90;;;;;;5057775;28;20055;-75
2022/06/03 10:28:36;;;;;;;2.85;1.40;;;20.30;99.90;;;;;;5074900;28;20041;-75
2022/06/03 10:31:04;;;;;;;2.03;1.30;;;;;;;;;;5074746;28;20044;-74
2022/06/03 10:33:31;;;;;;;1.10;0.90;;;;;;;;;;5074321;28;20040;-76
2022/06/03 10:35:58;;;;;;;2.08;1.30;;;;;;;;;;5074434;28;20094;-75
2022/06/03 10:38:27;;;;;;;2.28;1.40;;;;;;;;;;5074550;28;20037;-75
2022/06/03 10:40:53;;;;;;;1.48;1.20;;;;;;;;;;5057634;28;20411;-76
2022/06/03 10:43:30;;;;;;;1.48;0.90;;;;;;;;;;5057771;28;20033;-76
2022/06/03 10:46:08;;;;;;;3.00;1.70;;;;;;;;;;5074473;28;20045;-75
2022/06/03 10:48:35;;;;;;;1.77;1.45;;;;;;;;;;5073768;28;20047;-76
2022/06/03 10:51:15;;;;;;;1.92;1.13;;;;;;;;;;5057576;28;20404;-76
2022/06/03 11:02:00;;;;;;;1.50;1.10;;;;;;;;;;5073911;28;20049;-73
2022/06/03 11:04:29;;;;;;;2.13;1.17;;;;;;;;;;5074182;28;20046;-72
2022/06/03 11:06:56;;;;;;;1.45;1.25;;;;;;;;;;5074856;28;20119;-71
2022/06/03 11:09:23;;;;;;;2.45;1.13;;;;;;;;;;5073419;28;20423;-74
2022/06/03 11:11:57;;;;;;;3.15;1.33;;;;;;;;;;5073716;28;20068;-74
2022/06/03 11:14:42;;;;;;;1.98;1.30;;;;;;;;;;5057270;28;20093;-75
2022/06/03 11:17:20;;;;;;;1.33;0.95;;;;;;;;;;5073861;28;20037;-74
2022/06/03 11:19:47;;;;;;;1.92;1.02;;;;;;;;;;5057525;28;20036;-75
2022/06/03 11:22:19;;;;;;;2.13;1.20;;;;;;;;;;5056654;28;20092;-75
2022/06/03 11:25:03;;;;;;;1.60;0.90;;;;;;;;;;5056969;28;20164;-75
2022/06/03 11:27:39;;;;;;;2.63;1.23;;;;;;;;;;5073959;28;20033;-73
2022/06/03 11:30:11;;;;;;;2.55;1.02;;;;;;;;;;5056602;28;20036;-73
2022/06/03 11:32:37;;;;;;;1.80;1.20;;;;;;;;;;5056709;28;20056;-75
2022/06/03 11:35:09;;;;;;;3.17;1.10;;;;;;;;;;5073410;28;20044;-74
2022/06/03 11:37:41;;;;;;;1.33;1.00;;;;;;;;;;5073214;28;20444;-74
2022/06/03 11:40:22;;;;;;;1.73;1.20;;;;;;;;;;5073048;28;20122;-72
2022/06/03 11:42:57;;;;;;;4.15;1.58;;;;;;;;;;5073302;28;20041;-75
2022/06/03 11:45:30;;;;;;;1.13;0.82;;;;;;;;;;5073958;28;20037;-75
2022/06/03 11:47:59;;;;;;;1.15;0.82;;;;;;;;;;5073549;28;20052;-74
2022/06/03 11:50:28;;;;;;;1.85;0.90;;;;;;;;;;5073287;28;20051;-75
2022/06/03 11:52:55;;;;;;;1.23;1.05;;;;;;;;;;5057800;28;20036;-75
2022/06/03 11:55:23;;;;;;;2.05;1.02;;;;;;;;;;5056473;28;20122;-74
2022/06/03 11:57:58;;;;;;;2.05;1.10;;;;;;;;;;5072669;28;20047;-74
2022/06/03 12:00:26;;;;;;;2.10;1.33;;;;;;;;;;5055561;28;20079;-73
2022/06/03 12:03:21;;;;;;;2.40;1.08;;;;;;;;;;5072664;28;20131;-74
2022/06/03 12:05:50;;;;;;;1.40;0.93;;;;;;;;;;5073135;28;20127;-74
2022/06/03 12:08:29;;;;;;;1.27;0.80;;;;;;;;;;5073287;28;20396;-74
2022/06/03 12:10:59;;;;;;;2.70;0.90;;;;;;;;;;5072953;28;20177;-73
2022/06/03 12:13:33;;;;;;;1.55;0.90;;;;;;;;;;5055623;28;20094;-72
2022/06/03 12:16:01;;;;;;;1.48;1.02;;;;;;;;;;5072283;28;20052;-74
2022/06/03 12:18:37;;;;;;;1.95;1.00;;;;;;;;;;5072330;28;20083;-74
2022/06/03 12:21:07;;;;;;;2.45;0.70;;;;;;;;;;5072071;28;20106;-74
2022/06/03 12:23:33;;;;;;;1.30;0.82;;;;;;;;;;5072519;28;20045;-75
2022/06/03 12:25:59;;;;;;;1.98;1.02;;;;;;;;;;5072324;28;20046;-75
2022/06/03 12:28:32;;;;;;;0.85;0.65;;;;;;;;;;5072294;28;20041;-76
2022/06/03 12:31:00;;;;;;;1.13;0.70;;;;;;;;;;5072244;28;20044;-75
2022/06/03 12:33:26;;;;;;;1.67;0.82;;;;;;;;;;5072359;28;20101;-76
2022/06/03 12:35:54;;;;;;;2.22;1.00;;;;;;;;;;5072337;28;20484;-74
2022/06/03 12:38:20;;;;;;;1.27;0.70;;;;;;;;;;5072162;28;20041;-75
2022/06/03 12:40:54;;;;;;;1.40;0.90;;;;;;;;;;5072076;28;20408;-75
2022/06/03 12:43:23;;;;;;;1.15;0.80;;;;;;;;;;5072290;28;20094;-75
2022/06/03 12:46:21;;;;;;;3.47;0.70;;;;;;;;;;5072116;28;20040;-76
2022/06/03 12:48:51;;;;;;;1.35;0.80;;;;;;;;;;5049964;28;20050;-76
2022/06/03 12:51:31;;;;;;;4.20;1.00;;;;;;;;;;5055620;28;20044;-77
2022/06/03 12:54:14;;;;;;;1.00;0.70;;;;;;;;;;5072342;28;20396;-75
2022/06/03 12:56:46;;;;;;;0.85;0.70;;;;;;;;;;5072195;28;20087;-75
2022/06/03 12:59:18;;;;;;;0.90;0.60;;;;;;;;;;5071741;28;20492;-74
2022/06/03 13:01:47;;;;;;;0.90;0.65;;;;;;;;;;5071858;28;20123;-74
2022/06/03 13:04:27;;;;;;;0.90;0.60;;;;;;;;;;5055543;28;20392;-75
2022/06/03 13:07:12;;;;;;;1.65;0.98;;;;;;;;;;5072072;28;20048;-75
2022/06/03 13:10:04;;;;;;;1.20;0.70;;;;;;;;;;5072182;28;20040;-75
2022/06/03 13:12:36;;;;;;;1.33;0.82;;;;;;;;;;5059969;28;20048;-74
2022/06/03 13:15:18;;;;;;;1.05;0.70;;;;;;;;;;5075879;28;20083;-74
2022/06/03 13:20:39;;;;;;;1.38;0.60;;;;;;;;;;5076105;28;20068;-74
2022/06/03 13:23:20;;;;;;;0.95;0.70;;;;;;;;;;5075611;28;20053;-75
2022/06/03 13:25:47;;;;;;;1.35;0.90;;;;;;;;;;5075745;28;20045;-74
2022/06/03 13:28:25;;;;;;;0.98;0.68;;;;;;;;;;5075859;28;20039;-74
2022/06/03 13:31:10;;;;;;;0.80;0.80;;;;;;;;;;5075958;28;20062;-74
2022/06/03 13:33:54;;;;;;;1.08;0.90;;;;;;;;;;5075630;28;20072;-75
2022/06/03 13:36:39;;;;;;;0.77;0.63;;;;;;;;;;5075299;28;20056;-74
2022/06/03 13:39:06;;;;;;;1.75;0.60;;;;;;;;;;5075741;28;20056;-73
2022/06/03 13:44:44;;;;;;;1.10;0.73;;;;;;;;;;5075331;28;20398;-73
2022/06/03 13:47:22;;;;;;;0.50;0.45;;;;;;;;;;5059203;28;20392;-73
2022/06/03 13:49:54;;;;;;;1.02;0.52;;;;;;;;;;5058584;28;20118;-74
2022/06/03 13:52:25;;;;;;;0.50;0.50;;;;;;;;;;5058784;28;20122;-74
2022/06/03 13:54:54;;;;;;;4.07;0.80;;;;;;;;;;5075694;28;20033;-74
2022/06/03 13:57:29;;;;;;;1.10;0.70;;;;;;;;;;5075404;28;20064;-74
2022/06/03 14:00:11;;;;;;;0.95;0.57;;;;;;;;;;5074855;28;20041;-74
2022/06/03 14:02:38;;;;;;;0.55;0.55;;;;;;;;;;5075160;28;20438;-73
2022/06/03 14:05:07;;;;;;;0.80;0.50;;;;;;;;;;5074830;28;20036;-73
2022/06/03 14:07:36;;;;;;;0.77;0.70;;;;;;;;;;5074732;28;20479;-72
2022/06/03 14:10:12;;;;;;;1.00;0.52;;;;;;;;;;5074639;28;20048;-76
2022/06/03 14:12:57;;;;;;;0.73;0.70;;;;;;;;;;5074718;28;20043;-73
2022/06/03 14:15:27;;;;;;;1.08;0.70;;;;;;;;;;5058015;28;20086;-73
2022/06/03 14:17:58;;;;;;;1.02;0.60;;;;;;;;;;5074474;28;20046;-75
2022/06/03 14:20:24;;;;;;;2.80;0.60;;;;;;;;;;5074674;28;20080;-72
2022/06/03 14:23:09;;;;;;;1.17;0.57;;;;;;;;;;5057540;28;20072;-74
2022/06/03 14:25:46;;;;;;;0.68;0.50;;;;;;;;;;5058003;28;20036;-73
2022/06/03 14:28:19;;;;;;;1.40;0.60;;;;;;;;;;5074806;28;20127;-74
2022/06/03 14:30:50;;;;;;;1.50;0.65;;;;;;;;;;5074530;28;20076;-73
2022/06/03 14:33:17;;;;;;;0.85;0.60;;;;;;;;;;5058001;28;20036;-73
2022/06/03 14:35:45;;;;;;;1.10;0.68;;;;;;;;;;5074216;28;20046;-74
2022/06/03 14:38:11;;;;;;;0.55;0.50;;;;;;;;;;5074693;28;20392;-75
2022/06/03 14:40:39;;;;;;;1.42;0.90;;;;;;;;;;5074208;28;20041;-74
2022/06/03 14:43:05;;;;;;;0.70;0.60;;;;;;;;;;5057412;28;20033;-73
2022/06/03 14:45:42;;;;;;;0.73;0.68;;;;;;;;;;5074053;28;20045;-74
2022/06/03 14:48:11;;;;;;;0.68;0.60;;;;;;;;;;5057451;28;20062;-74
2022/06/03 14:50:41;;;;;;;1.13;0.73;;;;;;;;;;5057573;28;20089;-74
2022/06/03 14:53:17;;;;;;;0.75;0.65;;;;;;;;;;5108212;28;20089;-74
2022/06/03 14:55:44;;;;;;;1.02;0.50;;;;;;;;;;5073814;28;20048;-73
2022/06/03 14:58:19;;;;;;;1.77;0.63;;;;;;;;;;5057382;28;20046;-73
2022/06/03 15:01:04;;;;;;;0.40;0.40;;;;;;;;;;5074022;28;20505;-72
2022/06/03 15:03:42;;;;;;;0.73;0.60;;;;;;;;;;5073815;28;20033;-71